^^
Meteo Knjazevac Station Historical Data
Daily Summary for February 28, 2021 Units:  English    Metric   Both
Daily Weekly Monthly Yearly Custom
  High: Low: Average:
Temperature: 61.5 °F 37.8 °F 50.3 °F
Dew Point: 50 °F 37.5 °F 45.3 °F
Humidity: 99% 59% 85%
Wind Speed: 8mph 0mph 3.1mph
Wind Gust: 18mph - -
Wind- - South
Pressure: 29.64 in 29.43 in -
Precipitation: 0.05 in    
Historical Graphs
 
 
Tabular Data for February 28, 2021
Time Temperature Dew Point Pressure Wind Wind Speed Wind Gust Humidity Rainfall Rate (Hourly) solar Conditions
00:00 42.8 °F 42.3 °F 29.64 in Calm   3 mph 98% 0.00 in 0 W/m2
00:10 42.6 °F 42.1 °F 29.64 in North 1 mph 3 mph 98% 0.01 in 0 W/m2
00:20 42.6 °F 42 °F 29.64 in Calm   2 mph 98% 0.00 in 0 W/m2
00:30 42.4 °F 41.9 °F 29.63 in West 1 mph 2 mph 98% 0.00 in 0 W/m2
00:40 42.4 °F 41.9 °F 29.63 in Calm   3 mph 98% 0.00 in 0 W/m2
00:50 42.4 °F 41.9 °F 29.62 in Calm   2 mph 98% 0.00 in 0 W/m2
01:00 42.3 °F 41.7 °F 29.63 in West 1 mph 3 mph 98% 0.00 in 0 W/m2
01:10 42.3 °F 42 °F 29.62 in WNW 1 mph 3 mph 99% 0.00 in 0 W/m2
01:20 42.3 °F 42 °F 29.62 in Calm   2 mph 99% 0.00 in 0 W/m2
01:30 42.3 °F 42 °F 29.62 in Calm   2 mph 99% 0.00 in 0 W/m2
01:40 42.2 °F 41.9 °F 29.62 in NNE 2 mph 3 mph 99% 0.00 in 0 W/m2
01:50 41.9 °F 41.6 °F 29.62 in NNE 1 mph 4 mph 99% 0.00 in 0 W/m2
02:00 41.9 °F 41.6 °F 29.62 in NNE 1 mph 3 mph 99% 0.00 in 0 W/m2
02:10 42.1 °F 41.8 °F 29.62 in Calm   3 mph 99% 0.00 in 0 W/m2
02:20 42 °F 41.8 °F 29.62 in Calm   2 mph 99% 0.00 in 0 W/m2
02:30 41.9 °F 41.6 °F 29.62 in West 3 mph 4 mph 99% 0.00 in 0 W/m2
02:40 41.4 °F 41.1 °F 29.61 in West 2 mph 5 mph 99% 0.00 in 0 W/m2
02:50 41.2 °F 40.9 °F 29.60 in WNW 2 mph 3 mph 99% 0.00 in 0 W/m2
03:00 41 °F 40.7 °F 29.60 in WNW 1 mph 5 mph 99% 0.00 in 0 W/m2
03:10 40.8 °F 40.6 °F 29.60 in North 2 mph 3 mph 99% 0.00 in 0 W/m2
03:20 40.6 °F 40.4 °F 29.60 in NNW 1 mph 2 mph 99% 0.00 in 0 W/m2
03:30 40.5 °F 40.2 °F 29.60 in Calm   2 mph 99% 0.00 in 0 W/m2
03:40 40.1 °F 39.8 °F 29.60 in WSW 3 mph 4 mph 99% 0.00 in 0 W/m2
03:50 39.7 °F 39.5 °F 29.60 in WSW 1 mph 3 mph 99% 0.00 in 0 W/m2
04:00 39.6 °F 39.3 °F 29.60 in WNW 1 mph 3 mph 99% 0.00 in 0 W/m2
04:10 39.6 °F 39.3 °F 29.60 in NNE 3 mph 5 mph 99% 0.00 in 0 W/m2
04:20 39.4 °F 39.1 °F 29.60 in NNE 2 mph 5 mph 99% 0.00 in 0 W/m2
04:30 39.4 °F 39.1 °F 29.61 in NNE 2 mph 5 mph 99% 0.00 in 0 W/m2
04:40 39.4 °F 39.1 °F 29.62 in Calm   2 mph 99% 0.00 in 0 W/m2
04:50 39.6 °F 39.3 °F 29.62 in NNE 3 mph 5 mph 99% 0.00 in 0 W/m2
05:00 39.6 °F 39.3 °F 29.62 in NNE 1 mph 4 mph 99% 0.00 in 0 W/m2
05:10 39.6 °F 39.3 °F 29.61 in Calm   3 mph 99% 0.00 in 0 W/m2
05:20 39.6 °F 39.3 °F 29.62 in NW 1 mph 2 mph 99% 0.00 in 0 W/m2
05:30 39.4 °F 39.1 °F 29.62 in West 3 mph 5 mph 99% 0.00 in 0 W/m2
05:40 39.2 °F 38.9 °F 29.62 in West 3 mph 5 mph 99% 0.00 in 0 W/m2
05:50 39 °F 38.8 °F 29.61 in Calm   4 mph 99% 0.00 in 0 W/m2
06:00 38.7 °F 38.4 °F 29.61 in WSW 3 mph 5 mph 99% 0.00 in 0 W/m2
06:10 38.5 °F 38.2 °F 29.62 in WSW 3 mph 6 mph 99% 0.00 in 0 W/m2
06:20 38.3 °F 38 °F 29.61 in West 3 mph 6 mph 99% 0.00 in 0 W/m2
06:30 38.1 °F 37.9 °F 29.62 in West 5 mph 7 mph 99% 0.00 in 0 W/m2
06:40 37.9 °F 37.7 °F 29.62 in West 3 mph 6 mph 99% 0.00 in 3 W/m2
06:50 37.8 °F 37.5 °F 29.62 in WNW 2 mph 5 mph 99% 0.00 in 8 W/m2
07:00 37.8 °F 37.5 °F 29.61 in WNW 2 mph 5 mph 99% 0.00 in 12 W/m2
07:10 37.8 °F 37.5 °F 29.62 in WNW 2 mph 5 mph 99% 0.00 in 20 W/m2
07:20 38.6 °F 38.4 °F 29.62 in West 3 mph 6 mph 99% 0.00 in 31 W/m2
07:30 39.2 °F 38.9 °F 29.62 in West 3 mph 7 mph 99% 0.00 in 29 W/m2
07:40 40.2 °F 39.9 °F 29.63 in SSW 2 mph 7 mph 99% 0.00 in 32 W/m2
07:50 41.1 °F 40.8 °F 29.63 in NE 2 mph 8 mph 99% 0.00 in 38 W/m2
08:00 41.3 °F 41 °F 29.63 in NE 7 mph 12 mph 99% 0.00 in 49 W/m2
08:10 42.1 °F 41.8 °F 29.63 in NNE 7 mph 12 mph 99% 0.00 in 143 W/m2
08:20 43 °F 42.7 °F 29.62 in NE 2 mph 11 mph 99% 0.00 in 92 W/m2
08:30 43.5 °F 43.3 °F 29.61 in NNE 5 mph 9 mph 99% 0.00 in 86 W/m2
08:40 44.1 °F 43.9 °F 29.61 in NNE 5 mph 6 mph 99% 0.00 in 201 W/m2
08:50 46.1 °F 45.9 °F 29.60 in North 1 mph 5 mph 99% 0.00 in 220 W/m2
09:00 47.7 °F 47.5 °F 29.60 in WSW 2 mph 4 mph 99% 0.00 in 153 W/m2
09:10 49 °F 47.9 °F 29.61 in SSW 1 mph 5 mph 96% 0.00 in 206 W/m2
09:20 50.4 °F 48.8 °F 29.62 in ESE 5 mph 7 mph 94% 0.00 in 192 W/m2
09:30 50.9 °F 48.4 °F 29.62 in NE 5 mph 9 mph 91% 0.00 in 137 W/m2
09:40 51.8 °F 48.4 °F 29.62 in ENE 1 mph 12 mph 88% 0.00 in 150 W/m2
09:50 52.2 °F 48.8 °F 29.62 in ESE 3 mph 7 mph 88% 0.00 in 202 W/m2
10:00 53.6 °F 48.9 °F 29.61 in SE 1 mph 6 mph 84% 0.00 in 291 W/m2
10:10 55.1 °F 50 °F 29.60 in ESE 3 mph 8 mph 83% 0.00 in 192 W/m2
10:20 56 °F 49.9 °F 29.60 in SE 5 mph 9 mph 80% 0.00 in 162 W/m2
10:30 56.7 °F 49.5 °F 29.60 in South 1 mph 13 mph 77% 0.00 in 245 W/m2
10:40 57.5 °F 49.6 °F 29.60 in SW 5 mph 8 mph 75% 0.00 in 225 W/m2
10:50 58.5 °F 48.7 °F 29.60 in SSW 3 mph 14 mph 70% 0.00 in 222 W/m2
11:00 58.9 °F 49.5 °F 29.59 in SSE 1 mph 8 mph 71% 0.00 in 276 W/m2
11:10 59.4 °F 49.7 °F 29.59 in SE 3 mph 8 mph 70% 0.00 in 239 W/m2
11:20 59.7 °F 49.5 °F 29.59 in SE 7 mph 13 mph 69% 0.00 in 167 W/m2
11:30 59.5 °F 49.4 °F 29.58 in SE 7 mph 12 mph 69% 0.00 in 262 W/m2
11:40 59.7 °F 49.1 °F 29.58 in SE 7 mph 12 mph 68% 0.00 in 299 W/m2
11:50 60.1 °F 49.5 °F 29.57 in SSE 5 mph 10 mph 68% 0.00 in 187 W/m2
12:00 60.1 °F 49.5 °F 29.57 in South 6 mph 12 mph 68% 0.00 in 274 W/m2
12:10 60.3 °F 49.3 °F 29.57 in South 7 mph 14 mph 67% 0.00 in 246 W/m2
12:20 60.7 °F 48.5 °F 29.57 in SSW 7 mph 13 mph 64% 0.00 in 191 W/m2
12:30 61 °F 48.3 °F 29.58 in SSW 7 mph 15 mph 63% 0.00 in 176 W/m2
12:40 61 °F 48.3 °F 29.57 in South 6 mph 13 mph 63% 0.00 in 199 W/m2
12:50 61.3 °F 49.1 °F 29.57 in SSW 6 mph 13 mph 64% 0.00 in 214 W/m2
13:00 61.5 °F 48.4 °F 29.57 in SSW 7 mph 17 mph 62% 0.00 in 122 W/m2
13:10 61.5 °F 48.4 °F 29.57 in SSW 8 mph 18 mph 62% 0.00 in 105 W/m2
13:20 61.5 °F 47.5 °F 29.56 in South 8 mph 18 mph 60% 0.00 in 111 W/m2
13:30 61.5 °F 47.5 °F 29.55 in South 7 mph 17 mph 60% 0.00 in 104 W/m2
13:40 61.2 °F 48 °F 29.55 in SSE 6 mph 13 mph 62% 0.00 in 88 W/m2
13:50 60.7 °F 48 °F 29.55 in SE 6 mph 14 mph 63% 0.00 in 83 W/m2
14:00 60.4 °F 47.8 °F 29.54 in SE 7 mph 14 mph 63% 0.00 in 75 W/m2
14:10 60.4 °F 47.8 °F 29.54 in SE 6 mph 13 mph 63% 0.00 in 70 W/m2
14:20 60.3 °F 47.6 °F 29.54 in SE 7 mph 13 mph 63% 0.00 in 58 W/m2
14:30 60.3 °F 47.6 °F 29.54 in SE 5 mph 9 mph 63% 0.00 in 53 W/m2
14:40 60.1 °F 47.4 °F 29.53 in SE 7 mph 12 mph 63% 0.00 in 46 W/m2
14:50 60.1 °F 47.4 °F 29.53 in SE 3 mph 12 mph 63% 0.00 in 39 W/m2
15:00 59.7 °F 47.1 °F 29.53 in SE 3 mph 6 mph 63% 0.00 in 27 W/m2
15:10 59.6 °F 46.2 °F 29.53 in ESE 6 mph 10 mph 61% 0.00 in 39 W/m2
15:20 60.1 °F 45.7 °F 29.52 in SE 5 mph 12 mph 59% 0.00 in 11 W/m2
15:30 59.7 °F 45.8 °F 29.52 in ESE 5 mph 10 mph 60% 0.00 in 10 W/m2
15:40 59.4 °F 46.4 °F 29.51 in East 3 mph 10 mph 62% 0.00 in 3 W/m2
15:50 59 °F 46.4 °F 29.51 in East 6 mph 9 mph 63% 0.00 in 1 W/m2
16:00 58.7 °F 46.2 °F 29.51 in ESE 5 mph 10 mph 63% 0.00 in 0 W/m2
16:10 58.6 °F 46.5 °F 29.50 in East 6 mph 10 mph 64% 0.00 in 0 W/m2
16:20 58.5 °F 46.3 °F 29.50 in East 3 mph 10 mph 64% 0.00 in 0 W/m2
16:30 58.6 °F 46.1 °F 29.52 in East 3 mph 8 mph 63% 0.00 in 0 W/m2
16:40 58.5 °F 45.5 °F 29.51 in ESE 2 mph 5 mph 62% 0.00 in 0 W/m2
16:50 59 °F 45.1 °F 29.50 in SSE 3 mph 11 mph 60% 0.00 in 0 W/m2
17:00 58.9 °F 45 °F 29.50 in South 3 mph 8 mph 60% 0.00 in 0 W/m2
17:10 58.8 °F 45 °F 29.51 in SSW 6 mph 14 mph 60% 0.00 in 0 W/m2
17:20 59.2 °F 46.6 °F 29.52 in South 8 mph 17 mph 63% 0.00 in 0 W/m2
17:30 59 °F 46.8 °F 29.51 in SSW 8 mph 17 mph 64% 0.00 in 0 W/m2
17:40 58.8 °F 46.7 °F 29.52 in SW 6 mph 12 mph 64% 0.00 in 0 W/m2
17:50 58.8 °F 47.1 °F 29.51 in SW 3 mph 9 mph 65% 0.00 in 0 W/m2
18:00 58.5 °F 46.8 °F 29.50 in SW 5 mph 8 mph 65% 0.00 in 0 W/m2
18:10 58.3 °F 47 °F 29.50 in SW 5 mph 7 mph 66% 0.00 in 0 W/m2
18:20 58.1 °F 47.6 °F 29.51 in SW 3 mph 8 mph 68% 0.00 in 0 W/m2
18:30 57.6 °F 47.8 °F 29.52 in SSE 3 mph 8 mph 70% 0.00 in 0 W/m2
18:40 56.8 °F 48.6 °F 29.51 in South 5 mph 12 mph 74% 0.00 in 0 W/m2
18:50 55.8 °F 49.1 °F 29.52 in SW 5 mph 7 mph 78% 0.00 in 0 W/m2
19:00 55.2 °F 48.8 °F 29.52 in SW 5 mph 10 mph 79% 0.00 in 0 W/m2
19:10 54.7 °F 48.7 °F 29.52 in SW 3 mph 9 mph 80% 0.00 in 0 W/m2
19:20 54.4 °F 49.3 °F 29.51 in WSW 2 mph 5 mph 83% 0.00 in 0 W/m2
19:30 54 °F 49.6 °F 29.52 in West 3 mph 5 mph 85% 0.00 in 0 W/m2
19:40 53.6 °F 49.5 °F 29.51 in Calm   5 mph 86% 0.00 in 0 W/m2
19:50 53.1 °F 49.6 °F 29.51 in NNE 2 mph 6 mph 88% 0.00 in 0 W/m2
20:00 52.7 °F 49.5 °F 29.51 in Calm   3 mph 89% 0.00 in 0 W/m2
20:10 52.4 °F 49.3 °F 29.51 in NW 1 mph 3 mph 89% 0.01 in 0 W/m2
20:20 52.2 °F 49.3 °F 29.51 in WNW 2 mph 3 mph 90% 0.00 in 0 W/m2
20:30 52 °F 49.4 °F 29.50 in WNW 1 mph 3 mph 91% 0.00 in 0 W/m2
20:40 51.6 °F 49.7 °F 29.50 in SW 2 mph 3 mph 93% 0.00 in 0 W/m2
20:50 51.3 °F 49.6 °F 29.50 in SSW 1 mph 3 mph 94% 0.00 in 0 W/m2
21:00 51.1 °F 49.7 °F 29.50 in SW 1 mph 3 mph 95% 0.00 in 0 W/m2
21:10 50.9 °F 49.5 °F 29.49 in SSW 2 mph 4 mph 95% 0.00 in 0 W/m2
21:20 50.6 °F 49.2 °F 29.49 in South 2 mph 5 mph 95% 0.00 in 0 W/m2
21:30 50.5 °F 49.4 °F 29.49 in Calm   4 mph 96% 0.00 in 0 W/m2
21:40 50.4 °F 49.3 °F 29.49 in West 3 mph 5 mph 96% 0.00 in 0 W/m2
21:50 50.4 °F 49.3 °F 29.48 in West 5 mph 7 mph 96% 0.00 in 0 W/m2
22:00 50.2 °F 49.1 °F 29.47 in West 2 mph 6 mph 96% 0.00 in 0 W/m2
22:10 50.2 °F 49.1 °F 29.46 in SSW 2 mph 6 mph 96% 0.00 in 0 W/m2
22:20 50.2 °F 49.1 °F 29.47 in SSW 2 mph 5 mph 96% 0.00 in 0 W/m2
22:30 50.2 °F 48.8 °F 29.47 in WSW 1 mph 5 mph 95% 0.00 in 0 W/m2
22:40 50.4 °F 49 °F 29.47 in NNE 2 mph 6 mph 95% 0.01 in 0 W/m2
22:50 50.2 °F 49.1 °F 29.47 in NNE 1 mph 6 mph 96% 0.00 in 0 W/m2
23:00 50.2 °F 49.1 °F 29.45 in Calm   1 mph 96% 0.00 in 0 W/m2
23:10 50 °F 48.9 °F 29.46 in WNW 1 mph 2 mph 96% 0.00 in 0 W/m2
23:20 49.8 °F 49.3 °F 29.45 in South 1 mph 3 mph 98% 0.01 in 0 W/m2
23:30 49.7 °F 49.2 °F 29.45 in SW 3 mph 6 mph 98% 0.00 in 0 W/m2
23:40 49.8 °F 49.3 °F 29.44 in SSE 2 mph 6 mph 98% 0.00 in 0 W/m2
23:50 49.8 °F 49.3 °F 29.43 in NE 2 mph 5 mph 98% 0.00 in 0 W/m2
Knjazevac, Serbia
Compliments of Weather Underground - 2 mb